sensor_id;sensor_type;location;lat;lon;timestamp;temperature;humidity
45115;DHT22;30877;43.706;10.780;2024-02-21T00:02:29;10.20;96.70
45115;DHT22;30877;43.706;10.780;2024-02-21T00:05:15;10.20;96.70
45115;DHT22;30877;43.706;10.780;2024-02-21T00:10:41;10.10;96.70
45115;DHT22;30877;43.706;10.780;2024-02-21T00:13:11;10.10;96.70
45115;DHT22;30877;43.706;10.780;2024-02-21T00:15:44;10.10;96.70
45115;DHT22;30877;43.706;10.780;2024-02-21T00:18:13;10.10;96.70
45115;DHT22;30877;43.706;10.780;2024-02-21T00:20:42;10.10;96.70
45115;DHT22;30877;43.706;10.780;2024-02-21T00:23:11;10.10;96.70
45115;DHT22;30877;43.706;10.780;2024-02-21T00:25:41;10.10;96.70
45115;DHT22;30877;43.706;10.780;2024-02-21T00:28:10;10.10;96.70
45115;DHT22;30877;43.706;10.780;2024-02-21T00:30:43;10.20;96.70
45115;DHT22;30877;43.706;10.780;2024-02-21T00:33:13;10.10;96.70
45115;DHT22;30877;43.706;10.780;2024-02-21T00:35:42;10.10;96.70
45115;DHT22;30877;43.706;10.780;2024-02-21T00:38:14;10.00;96.70
45115;DHT22;30877;43.706;10.780;2024-02-21T00:40:44;9.80;96.70
45115;DHT22;30877;43.706;10.780;2024-02-21T00:43:13;9.80;96.70
45115;DHT22;30877;43.706;10.780;2024-02-21T00:45:44;9.70;96.70
45115;DHT22;30877;43.706;10.780;2024-02-21T00:48:14;9.60;96.70
45115;DHT22;30877;43.706;10.780;2024-02-21T00:50:44;9.60;96.70
45115;DHT22;30877;43.706;10.780;2024-02-21T00:53:15;9.50;96.70
45115;DHT22;30877;43.706;10.780;2024-02-21T00:55:45;9.40;96.70
45115;DHT22;30877;43.706;10.780;2024-02-21T00:58:15;9.50;96.70
45115;DHT22;30877;43.706;10.780;2024-02-21T01:00:47;9.50;96.70
45115;DHT22;30877;43.706;10.780;2024-02-21T01:03:16;9.60;96.70
45115;DHT22;30877;43.706;10.780;2024-02-21T01:05:46;9.50;96.70
45115;DHT22;30877;43.706;10.780;2024-02-21T01:08:16;9.60;96.70
45115;DHT22;30877;43.706;10.780;2024-02-21T01:10:46;9.60;96.70
45115;DHT22;30877;43.706;10.780;2024-02-21T01:13:19;9.70;96.70
45115;DHT22;30877;43.706;10.780;2024-02-21T01:15:49;9.60;96.70
45115;DHT22;30877;43.706;10.780;2024-02-21T01:18:18;9.60;96.70
45115;DHT22;30877;43.706;10.780;2024-02-21T01:20:47;9.50;96.70
45115;DHT22;30877;43.706;10.780;2024-02-21T01:23:17;9.50;96.70
45115;DHT22;30877;43.706;10.780;2024-02-21T01:25:47;9.50;96.70
45115;DHT22;30877;43.706;10.780;2024-02-21T01:28:17;9.50;96.70
45115;DHT22;30877;43.706;10.780;2024-02-21T01:30:49;9.40;96.70
45115;DHT22;30877;43.706;10.780;2024-02-21T01:33:21;9.40;96.70
45115;DHT22;30877;43.706;10.780;2024-02-21T01:35:50;9.30;96.70
45115;DHT22;30877;43.706;10.780;2024-02-21T01:38:20;9.40;96.70
45115;DHT22;30877;43.706;10.780;2024-02-21T01:40:50;9.40;96.70
45115;DHT22;30877;43.706;10.780;2024-02-21T01:43:21;9.40;96.70
45115;DHT22;30877;43.706;10.780;2024-02-21T01:45:53;9.40;96.70
45115;DHT22;30877;43.706;10.780;2024-02-21T01:48:25;9.40;96.70
45115;DHT22;30877;43.706;10.780;2024-02-21T01:50:55;9.40;96.70
45115;DHT22;30877;43.706;10.780;2024-02-21T01:53:29;9.30;96.70
45115;DHT22;30877;43.706;10.780;2024-02-21T01:56:01;9.30;96.70
45115;DHT22;30877;43.706;10.780;2024-02-21T01:58:36;9.30;96.70
45115;DHT22;30877;43.706;10.780;2024-02-21T02:01:07;9.30;96.70
45115;DHT22;30877;43.706;10.780;2024-02-21T02:03:37;9.30;96.70
45115;DHT22;30877;43.706;10.780;2024-02-21T02:06:08;9.20;96.70
45115;DHT22;30877;43.706;10.780;2024-02-21T02:08:39;9.20;96.70
45115;DHT22;30877;43.706;10.780;2024-02-21T02:11:09;9.20;96.70
45115;DHT22;30877;43.706;10.780;2024-02-21T02:13:39;9.20;96.70
45115;DHT22;30877;43.706;10.780;2024-02-21T02:16:11;9.20;96.70
45115;DHT22;30877;43.706;10.780;2024-02-21T02:18:41;9.20;96.70
45115;DHT22;30877;43.706;10.780;2024-02-21T02:21:19;9.00;96.70
45115;DHT22;30877;43.706;10.780;2024-02-21T02:23:52;9.00;96.70
45115;DHT22;30877;43.706;10.780;2024-02-21T02:26:22;9.00;96.70
45115;DHT22;30877;43.706;10.780;2024-02-21T02:28:50;9.00;96.70
45115;DHT22;30877;43.706;10.780;2024-02-21T02:31:19;9.00;96.70
45115;DHT22;30877;43.706;10.780;2024-02-21T02:33:49;9.10;96.70
45115;DHT22;30877;43.706;10.780;2024-02-21T02:36:19;9.00;96.70
45115;DHT22;30877;43.706;10.780;2024-02-21T02:38:48;9.00;96.70
45115;DHT22;30877;43.706;10.780;2024-02-21T02:41:20;8.90;96.70
45115;DHT22;30877;43.706;10.780;2024-02-21T02:43:49;8.90;96.70
45115;DHT22;30877;43.706;10.780;2024-02-21T02:46:18;8.90;96.70
45115;DHT22;30877;43.706;10.780;2024-02-21T02:48:47;8.90;96.70
45115;DHT22;30877;43.706;10.780;2024-02-21T02:51:16;8.80;96.70
45115;DHT22;30877;43.706;10.780;2024-02-21T02:53:47;8.80;96.70
45115;DHT22;30877;43.706;10.780;2024-02-21T02:56:16;8.80;96.70
45115;DHT22;30877;43.706;10.780;2024-02-21T02:58:49;8.80;96.70
45115;DHT22;30877;43.706;10.780;2024-02-21T03:01:18;8.70;96.70
45115;DHT22;30877;43.706;10.780;2024-02-21T03:03:46;8.60;96.70
45115;DHT22;30877;43.706;10.780;2024-02-21T03:06:16;8.60;96.70
45115;DHT22;30877;43.706;10.780;2024-02-21T03:08:44;8.70;96.70
45115;DHT22;30877;43.706;10.780;2024-02-21T03:11:13;8.70;96.70
45115;DHT22;30877;43.706;10.780;2024-02-21T03:13:43;8.70;96.70
45115;DHT22;30877;43.706;10.780;2024-02-21T03:16:13;8.70;96.70
45115;DHT22;30877;43.706;10.780;2024-02-21T03:18:45;8.60;96.70
45115;DHT22;30877;43.706;10.780;2024-02-21T03:21:14;8.60;96.70
45115;DHT22;30877;43.706;10.780;2024-02-21T03:23:42;8.50;96.70
45115;DHT22;30877;43.706;10.780;2024-02-21T03:26:12;8.40;96.70
45115;DHT22;30877;43.706;10.780;2024-02-21T03:28:45;8.40;96.70
45115;DHT22;30877;43.706;10.780;2024-02-21T03:31:16;8.40;96.70
45115;DHT22;30877;43.706;10.780;2024-02-21T03:33:47;8.40;96.70
45115;DHT22;30877;43.706;10.780;2024-02-21T03:36:16;8.40;96.70
45115;DHT22;30877;43.706;10.780;2024-02-21T03:38:48;8.40;96.70
45115;DHT22;30877;43.706;10.780;2024-02-21T03:41:16;8.40;96.70
45115;DHT22;30877;43.706;10.780;2024-02-21T03:43:50;8.40;96.70
45115;DHT22;30877;43.706;10.780;2024-02-21T03:46:24;8.40;96.70
45115;DHT22;30877;43.706;10.780;2024-02-21T03:48:54;8.40;96.70
45115;DHT22;30877;43.706;10.780;2024-02-21T03:51:23;8.30;96.70
45115;DHT22;30877;43.706;10.780;2024-02-21T03:53:52;8.30;96.70
45115;DHT22;30877;43.706;10.780;2024-02-21T03:56:23;8.30;96.70
45115;DHT22;30877;43.706;10.780;2024-02-21T03:58:51;8.40;96.70
45115;DHT22;30877;43.706;10.780;2024-02-21T04:01:24;8.40;96.70
45115;DHT22;30877;43.706;10.780;2024-02-21T04:03:56;8.30;96.70
45115;DHT22;30877;43.706;10.780;2024-02-21T04:06:26;8.30;96.70
45115;DHT22;30877;43.706;10.780;2024-02-21T04:08:57;8.30;96.70
45115;DHT22;30877;43.706;10.780;2024-02-21T04:11:25;8.30;96.70
45115;DHT22;30877;43.706;10.780;2024-02-21T04:13:54;8.30;96.70
45115;DHT22;30877;43.706;10.780;2024-02-21T04:16:26;8.30;96.70
45115;DHT22;30877;43.706;10.780;2024-02-21T04:18:57;8.30;96.70
45115;DHT22;30877;43.706;10.780;2024-02-21T04:21:26;8.30;96.70
45115;DHT22;30877;43.706;10.780;2024-02-21T04:23:56;8.30;96.70
45115;DHT22;30877;43.706;10.780;2024-02-21T04:26:25;8.30;96.70
45115;DHT22;30877;43.706;10.780;2024-02-21T04:28:56;8.30;96.70
45115;DHT22;30877;43.706;10.780;2024-02-21T04:31:27;8.20;96.70
45115;DHT22;30877;43.706;10.780;2024-02-21T04:33:57;8.20;96.70
45115;DHT22;30877;43.706;10.780;2024-02-21T04:36:29;8.20;96.70
45115;DHT22;30877;43.706;10.780;2024-02-21T04:38:57;8.20;96.70
45115;DHT22;30877;43.706;10.780;2024-02-21T04:41:26;8.20;96.70
45115;DHT22;30877;43.706;10.780;2024-02-21T04:43:55;8.10;96.70
45115;DHT22;30877;43.706;10.780;2024-02-21T04:46:29;8.10;96.70
45115;DHT22;30877;43.706;10.780;2024-02-21T04:48:58;8.10;96.70
45115;DHT22;30877;43.706;10.780;2024-02-21T04:51:28;8.10;96.70
45115;DHT22;30877;43.706;10.780;2024-02-21T04:54:02;8.10;96.70
45115;DHT22;30877;43.706;10.780;2024-02-21T04:56:33;8.10;96.70
45115;DHT22;30877;43.706;10.780;2024-02-21T04:59:03;8.10;96.70
45115;DHT22;30877;43.706;10.780;2024-02-21T05:01:34;8.00;96.70
45115;DHT22;30877;43.706;10.780;2024-02-21T05:04:05;8.00;96.70
45115;DHT22;30877;43.706;10.780;2024-02-21T05:06:50;7.90;96.70
45115;DHT22;30877;43.706;10.780;2024-02-21T05:09:18;7.80;96.70
45115;DHT22;30877;43.706;10.780;2024-02-21T05:11:47;7.80;96.70
45115;DHT22;30877;43.706;10.780;2024-02-21T05:14:16;7.80;96.70
45115;DHT22;30877;43.706;10.780;2024-02-21T05:16:48;7.90;96.70
45115;DHT22;30877;43.706;10.780;2024-02-21T05:19:19;7.90;96.70
45115;DHT22;30877;43.706;10.780;2024-02-21T05:21:48;7.80;96.70
45115;DHT22;30877;43.706;10.780;2024-02-21T05:24:17;7.80;96.70
45115;DHT22;30877;43.706;10.780;2024-02-21T05:26:45;7.90;96.70
45115;DHT22;30877;43.706;10.780;2024-02-21T05:29:13;7.80;96.70
45115;DHT22;30877;43.706;10.780;2024-02-21T05:31:57;7.80;96.70
45115;DHT22;30877;43.706;10.780;2024-02-21T05:34:27;7.70;96.70
45115;DHT22;30877;43.706;10.780;2024-02-21T05:36:57;7.70;96.70
45115;DHT22;30877;43.706;10.780;2024-02-21T05:39:27;7.60;96.70
45115;DHT22;30877;43.706;10.780;2024-02-21T05:41:58;7.60;96.70
45115;DHT22;30877;43.706;10.780;2024-02-21T05:44:31;7.50;96.70
45115;DHT22;30877;43.706;10.780;2024-02-21T05:47:01;7.40;96.70
45115;DHT22;30877;43.706;10.780;2024-02-21T05:49:32;7.40;96.70
45115;DHT22;30877;43.706;10.780;2024-02-21T05:52:04;7.40;96.70
45115;DHT22;30877;43.706;10.780;2024-02-21T05:54:37;7.30;96.70
45115;DHT22;30877;43.706;10.780;2024-02-21T05:57:08;7.30;96.70
45115;DHT22;30877;43.706;10.780;2024-02-21T05:59:39;7.30;96.70
45115;DHT22;30877;43.706;10.780;2024-02-21T06:02:13;7.30;96.70
45115;DHT22;30877;43.706;10.780;2024-02-21T06:04:42;7.30;96.70
45115;DHT22;30877;43.706;10.780;2024-02-21T06:07:12;7.30;96.70
45115;DHT22;30877;43.706;10.780;2024-02-21T06:09:41;7.30;96.70
45115;DHT22;30877;43.706;10.780;2024-02-21T06:12:10;7.20;96.70
45115;DHT22;30877;43.706;10.780;2024-02-21T06:14:38;7.20;96.70
45115;DHT22;30877;43.706;10.780;2024-02-21T06:17:08;7.30;96.70
45115;DHT22;30877;43.706;10.780;2024-02-21T06:19:43;7.30;96.70
45115;DHT22;30877;43.706;10.780;2024-02-21T06:22:13;7.40;96.70
45115;DHT22;30877;43.706;10.780;2024-02-21T06:24:42;7.40;96.70
45115;DHT22;30877;43.706;10.780;2024-02-21T06:27:14;7.50;96.70
45115;DHT22;30877;43.706;10.780;2024-02-21T06:29:46;7.50;96.70
45115;DHT22;30877;43.706;10.780;2024-02-21T06:32:15;7.40;96.70
45115;DHT22;30877;43.706;10.780;2024-02-21T06:34:44;7.50;96.70
45115;DHT22;30877;43.706;10.780;2024-02-21T06:37:14;7.60;96.70
45115;DHT22;30877;43.706;10.780;2024-02-21T06:39:43;7.50;96.70
45115;DHT22;30877;43.706;10.780;2024-02-21T06:42:12;7.50;96.70
45115;DHT22;30877;43.706;10.780;2024-02-21T06:44:40;7.50;96.70
45115;DHT22;30877;43.706;10.780;2024-02-21T06:47:11;7.50;96.70
45115;DHT22;30877;43.706;10.780;2024-02-21T06:49:40;7.40;96.70
45115;DHT22;30877;43.706;10.780;2024-02-21T06:52:13;7.40;96.70
45115;DHT22;30877;43.706;10.780;2024-02-21T06:54:47;7.50;96.70
45115;DHT22;30877;43.706;10.780;2024-02-21T06:57:16;7.50;96.70
45115;DHT22;30877;43.706;10.780;2024-02-21T06:59:44;7.50;96.70
45115;DHT22;30877;43.706;10.780;2024-02-21T07:02:17;7.50;96.70
45115;DHT22;30877;43.706;10.780;2024-02-21T07:04:47;7.50;96.70
45115;DHT22;30877;43.706;10.780;2024-02-21T07:07:19;7.50;96.70
45115;DHT22;30877;43.706;10.780;2024-02-21T07:09:51;7.60;96.70
45115;DHT22;30877;43.706;10.780;2024-02-21T07:12:25;7.60;96.70
45115;DHT22;30877;43.706;10.780;2024-02-21T07:14:55;7.60;96.70
45115;DHT22;30877;43.706;10.780;2024-02-21T07:17:25;7.70;96.70
45115;DHT22;30877;43.706;10.780;2024-02-21T07:19:54;7.70;96.70
45115;DHT22;30877;43.706;10.780;2024-02-21T07:22:29;7.70;96.70
45115;DHT22;30877;43.706;10.780;2024-02-21T07:24:58;7.70;96.70
45115;DHT22;30877;43.706;10.780;2024-02-21T07:27:33;7.70;96.70
45115;DHT22;30877;43.706;10.780;2024-02-21T07:30:04;7.70;96.70
45115;DHT22;30877;43.706;10.780;2024-02-21T07:32:33;7.80;96.70
45115;DHT22;30877;43.706;10.780;2024-02-21T07:35:02;7.80;96.70
45115;DHT22;30877;43.706;10.780;2024-02-21T07:37:34;7.80;96.70
45115;DHT22;30877;43.706;10.780;2024-02-21T07:40:04;7.90;96.70
45115;DHT22;30877;43.706;10.780;2024-02-21T07:42:32;7.90;96.70
45115;DHT22;30877;43.706;10.780;2024-02-21T07:45:01;8.00;96.70
45115;DHT22;30877;43.706;10.780;2024-02-21T07:47:31;8.00;96.70
45115;DHT22;30877;43.706;10.780;2024-02-21T07:49:59;8.10;96.70
45115;DHT22;30877;43.706;10.780;2024-02-21T07:52:28;8.20;96.70
45115;DHT22;30877;43.706;10.780;2024-02-21T07:55:01;8.20;96.70
45115;DHT22;30877;43.706;10.780;2024-02-21T07:57:31;8.20;96.70
45115;DHT22;30877;43.706;10.780;2024-02-21T08:00:00;8.40;96.70
45115;DHT22;30877;43.706;10.780;2024-02-21T08:02:38;8.50;96.70
45115;DHT22;30877;43.706;10.780;2024-02-21T08:05:07;8.50;96.70
45115;DHT22;30877;43.706;10.780;2024-02-21T08:07:38;8.60;96.70
45115;DHT22;30877;43.706;10.780;2024-02-21T08:10:10;8.80;96.70
45115;DHT22;30877;43.706;10.780;2024-02-21T08:12:41;8.90;96.70
45115;DHT22;30877;43.706;10.780;2024-02-21T08:15:10;9.00;96.70
45115;DHT22;30877;43.706;10.780;2024-02-21T08:17:42;9.00;96.70
45115;DHT22;30877;43.706;10.780;2024-02-21T08:20:11;9.00;96.70
45115;DHT22;30877;43.706;10.780;2024-02-21T08:22:45;9.20;96.70
45115;DHT22;30877;43.706;10.780;2024-02-21T08:25:17;9.30;96.70
45115;DHT22;30877;43.706;10.780;2024-02-21T08:27:47;9.30;96.70
45115;DHT22;30877;43.706;10.780;2024-02-21T08:30:16;9.40;96.70
45115;DHT22;30877;43.706;10.780;2024-02-21T08:32:46;9.50;96.70
45115;DHT22;30877;43.706;10.780;2024-02-21T08:35:17;9.60;96.70
45115;DHT22;30877;43.706;10.780;2024-02-21T08:37:51;9.70;96.70
45115;DHT22;30877;43.706;10.780;2024-02-21T08:40:22;9.80;96.70
45115;DHT22;30877;43.706;10.780;2024-02-21T08:42:52;9.80;96.70
45115;DHT22;30877;43.706;10.780;2024-02-21T08:45:23;9.80;96.70
45115;DHT22;30877;43.706;10.780;2024-02-21T08:47:52;9.90;96.70
45115;DHT22;30877;43.706;10.780;2024-02-21T08:50:25;9.90;96.70
45115;DHT22;30877;43.706;10.780;2024-02-21T08:52:56;10.00;96.70
45115;DHT22;30877;43.706;10.780;2024-02-21T08:55:28;10.00;96.70
45115;DHT22;30877;43.706;10.780;2024-02-21T08:57:58;10.00;96.70
45115;DHT22;30877;43.706;10.780;2024-02-21T09:00:27;10.10;96.70
45115;DHT22;30877;43.706;10.780;2024-02-21T09:02:56;10.20;96.70
45115;DHT22;30877;43.706;10.780;2024-02-21T09:05:26;10.30;96.70
45115;DHT22;30877;43.706;10.780;2024-02-21T09:07:56;10.40;96.70
45115;DHT22;30877;43.706;10.780;2024-02-21T09:10:27;10.50;96.70
45115;DHT22;30877;43.706;10.780;2024-02-21T09:12:58;10.50;96.70
45115;DHT22;30877;43.706;10.780;2024-02-21T09:15:32;10.60;96.70
45115;DHT22;30877;43.706;10.780;2024-02-21T09:18:02;10.80;96.70
45115;DHT22;30877;43.706;10.780;2024-02-21T09:20:34;10.80;96.70
45115;DHT22;30877;43.706;10.780;2024-02-21T09:23:04;10.90;96.70
45115;DHT22;30877;43.706;10.780;2024-02-21T09:25:35;11.00;96.70
45115;DHT22;30877;43.706;10.780;2024-02-21T09:28:04;11.20;96.70
45115;DHT22;30877;43.706;10.780;2024-02-21T09:30:34;11.40;96.70
45115;DHT22;30877;43.706;10.780;2024-02-21T09:33:03;11.50;96.70
45115;DHT22;30877;43.706;10.780;2024-02-21T09:35:34;11.70;96.70
45115;DHT22;30877;43.706;10.780;2024-02-21T09:38:03;11.80;96.70
45115;DHT22;30877;43.706;10.780;2024-02-21T09:40:34;12.00;96.70
45115;DHT22;30877;43.706;10.780;2024-02-21T09:43:09;12.00;96.70
45115;DHT22;30877;43.706;10.780;2024-02-21T09:45:40;12.20;96.70
45115;DHT22;30877;43.706;10.780;2024-02-21T09:48:25;12.20;96.70
45115;DHT22;30877;43.706;10.780;2024-02-21T09:51:03;12.20;96.70
45115;DHT22;30877;43.706;10.780;2024-02-21T09:53:32;12.40;96.70
45115;DHT22;30877;43.706;10.780;2024-02-21T09:56:06;12.50;96.70
45115;DHT22;30877;43.706;10.780;2024-02-21T09:58:38;12.60;96.70
45115;DHT22;30877;43.706;10.780;2024-02-21T10:01:07;12.80;96.70
45115;DHT22;30877;43.706;10.780;2024-02-21T10:03:57;13.00;96.70
45115;DHT22;30877;43.706;10.780;2024-02-21T10:06:25;13.10;96.70
45115;DHT22;30877;43.706;10.780;2024-02-21T10:08:57;13.30;96.70
45115;DHT22;30877;43.706;10.780;2024-02-21T10:11:30;13.30;96.70
45115;DHT22;30877;43.706;10.780;2024-02-21T10:14:04;13.40;96.70
45115;DHT22;30877;43.706;10.780;2024-02-21T10:16:35;13.50;96.70
45115;DHT22;30877;43.706;10.780;2024-02-21T10:19:05;13.60;96.70
45115;DHT22;30877;43.706;10.780;2024-02-21T10:21:35;13.70;96.70
45115;DHT22;30877;43.706;10.780;2024-02-21T10:24:05;13.80;96.70
45115;DHT22;30877;43.706;10.780;2024-02-21T10:26:35;13.90;96.70
45115;DHT22;30877;43.706;10.780;2024-02-21T10:29:05;13.90;96.70
45115;DHT22;30877;43.706;10.780;2024-02-21T10:31:35;13.90;96.70
45115;DHT22;30877;43.706;10.780;2024-02-21T10:34:03;14.10;96.70
45115;DHT22;30877;43.706;10.780;2024-02-21T10:36:34;14.30;96.70
45115;DHT22;30877;43.706;10.780;2024-02-21T10:39:03;14.30;96.70
45115;DHT22;30877;43.706;10.780;2024-02-21T10:41:32;14.40;96.70
45115;DHT22;30877;43.706;10.780;2024-02-21T10:44:05;14.40;96.70
45115;DHT22;30877;43.706;10.780;2024-02-21T10:46:40;14.60;96.70
45115;DHT22;30877;43.706;10.780;2024-02-21T10:49:18;14.60;96.70
45115;DHT22;30877;43.706;10.780;2024-02-21T10:51:55;14.70;96.70
45115;DHT22;30877;43.706;10.780;2024-02-21T10:54:39;14.80;96.70
45115;DHT22;30877;43.706;10.780;2024-02-21T10:57:09;14.90;96.70
45115;DHT22;30877;43.706;10.780;2024-02-21T10:59:41;14.90;96.70
45115;DHT22;30877;43.706;10.780;2024-02-21T11:02:12;14.80;96.70
45115;DHT22;30877;43.706;10.780;2024-02-21T11:04:43;14.80;96.70
45115;DHT22;30877;43.706;10.780;2024-02-21T11:07:16;14.90;96.70
45115;DHT22;30877;43.706;10.780;2024-02-21T11:09:51;15.00;96.70
45115;DHT22;30877;43.706;10.780;2024-02-21T11:12:27;15.20;96.70
45115;DHT22;30877;43.706;10.780;2024-02-21T11:15:06;15.30;96.70
45115;DHT22;30877;43.706;10.780;2024-02-21T11:17:36;15.40;96.70
45115;DHT22;30877;43.706;10.780;2024-02-21T11:20:19;15.50;96.70
45115;DHT22;30877;43.706;10.780;2024-02-21T11:22:57;15.50;96.70
45115;DHT22;30877;43.706;10.780;2024-02-21T11:25:27;15.60;96.70
45115;DHT22;30877;43.706;10.780;2024-02-21T11:28:00;15.70;96.70
45115;DHT22;30877;43.706;10.780;2024-02-21T11:30:36;15.80;96.70
45115;DHT22;30877;43.706;10.780;2024-02-21T11:33:08;15.90;96.70
45115;DHT22;30877;43.706;10.780;2024-02-21T11:35:37;16.00;96.70
45115;DHT22;30877;43.706;10.780;2024-02-21T11:38:10;16.10;96.70
45115;DHT22;30877;43.706;10.780;2024-02-21T11:40:46;16.30;96.70
45115;DHT22;30877;43.706;10.780;2024-02-21T11:43:16;16.40;96.70
45115;DHT22;30877;43.706;10.780;2024-02-21T11:45:47;16.60;96.70
45115;DHT22;30877;43.706;10.780;2024-02-21T11:48:16;16.70;96.70
45115;DHT22;30877;43.706;10.780;2024-02-21T11:50:53;16.90;96.70
45115;DHT22;30877;43.706;10.780;2024-02-21T11:53:24;17.00;96.70
45115;DHT22;30877;43.706;10.780;2024-02-21T11:55:55;17.10;96.70
45115;DHT22;30877;43.706;10.780;2024-02-21T11:58:27;17.20;96.70
45115;DHT22;30877;43.706;10.780;2024-02-21T12:00:58;17.20;96.70
45115;DHT22;30877;43.706;10.780;2024-02-21T12:03:27;17.40;96.70
45115;DHT22;30877;43.706;10.780;2024-02-21T12:05:57;17.40;96.70
45115;DHT22;30877;43.706;10.780;2024-02-21T12:08:28;17.50;96.70
45115;DHT22;30877;43.706;10.780;2024-02-21T12:11:18;17.60;96.70
45115;DHT22;30877;43.706;10.780;2024-02-21T12:13:47;17.70;96.70
45115;DHT22;30877;43.706;10.780;2024-02-21T12:16:17;17.70;96.70
45115;DHT22;30877;43.706;10.780;2024-02-21T12:18:46;17.80;96.70
45115;DHT22;30877;43.706;10.780;2024-02-21T12:21:16;17.90;96.70
45115;DHT22;30877;43.706;10.780;2024-02-21T12:23:45;18.00;96.70
45115;DHT22;30877;43.706;10.780;2024-02-21T12:26:15;18.10;96.70
45115;DHT22;30877;43.706;10.780;2024-02-21T12:28:43;18.20;96.70
45115;DHT22;30877;43.706;10.780;2024-02-21T12:31:13;18.30;96.70
45115;DHT22;30877;43.706;10.780;2024-02-21T12:33:45;18.40;96.70
45115;DHT22;30877;43.706;10.780;2024-02-21T12:36:13;18.60;96.70
45115;DHT22;30877;43.706;10.780;2024-02-21T12:38:42;18.70;96.70
45115;DHT22;30877;43.706;10.780;2024-02-21T12:41:11;18.80;96.70
45115;DHT22;30877;43.706;10.780;2024-02-21T12:43:42;18.70;96.70
45115;DHT22;30877;43.706;10.780;2024-02-21T12:46:11;18.80;96.70
45115;DHT22;30877;43.706;10.780;2024-02-21T12:48:41;18.90;96.70
45115;DHT22;30877;43.706;10.780;2024-02-21T12:51:12;18.90;96.70
45115;DHT22;30877;43.706;10.780;2024-02-21T12:53:41;19.00;96.70
45115;DHT22;30877;43.706;10.780;2024-02-21T12:56:11;18.90;96.70
45115;DHT22;30877;43.706;10.780;2024-02-21T12:58:42;19.10;96.70
45115;DHT22;30877;43.706;10.780;2024-02-21T13:01:11;19.10;96.70
45115;DHT22;30877;43.706;10.780;2024-02-21T13:03:41;19.10;96.70
45115;DHT22;30877;43.706;10.780;2024-02-21T13:06:11;19.20;96.70
45115;DHT22;30877;43.706;10.780;2024-02-21T13:08:42;19.20;96.70
45115;DHT22;30877;43.706;10.780;2024-02-21T13:11:13;19.10;96.70
45115;DHT22;30877;43.706;10.780;2024-02-21T13:13:43;19.20;96.70
45115;DHT22;30877;43.706;10.780;2024-02-21T13:16:12;19.20;96.70
45115;DHT22;30877;43.706;10.780;2024-02-21T13:18:43;19.30;96.70
45115;DHT22;30877;43.706;10.780;2024-02-21T13:21:14;19.40;96.70
45115;DHT22;30877;43.706;10.780;2024-02-21T13:23:46;19.40;96.70
45115;DHT22;30877;43.706;10.780;2024-02-21T13:26:18;19.50;96.70
45115;DHT22;30877;43.706;10.780;2024-02-21T13:28:49;19.40;96.70
45115;DHT22;30877;43.706;10.780;2024-02-21T13:31:20;19.50;96.70
45115;DHT22;30877;43.706;10.780;2024-02-21T13:33:48;19.60;96.70
45115;DHT22;30877;43.706;10.780;2024-02-21T13:36:19;19.40;96.70
45115;DHT22;30877;43.706;10.780;2024-02-21T13:38:49;19.30;96.70
45115;DHT22;30877;43.706;10.780;2024-02-21T13:41:20;19.30;96.70
45115;DHT22;30877;43.706;10.780;2024-02-21T13:43:52;19.20;96.70
45115;DHT22;30877;43.706;10.780;2024-02-21T13:46:23;19.20;96.70
45115;DHT22;30877;43.706;10.780;2024-02-21T13:48:52;19.20;96.70
45115;DHT22;30877;43.706;10.780;2024-02-21T13:51:26;19.20;96.70
45115;DHT22;30877;43.706;10.780;2024-02-21T13:53:55;19.10;96.70
45115;DHT22;30877;43.706;10.780;2024-02-21T13:56:25;19.10;96.70
45115;DHT22;30877;43.706;10.780;2024-02-21T13:58:54;19.10;96.70
45115;DHT22;30877;43.706;10.780;2024-02-21T14:01:23;19.10;96.70
45115;DHT22;30877;43.706;10.780;2024-02-21T14:03:52;19.00;96.70
45115;DHT22;30877;43.706;10.780;2024-02-21T14:06:22;19.00;96.70
45115;DHT22;30877;43.706;10.780;2024-02-21T14:08:52;19.00;96.70
45115;DHT22;30877;43.706;10.780;2024-02-21T14:11:23;19.00;96.70
45115;DHT22;30877;43.706;10.780;2024-02-21T14:13:53;19.00;96.70
45115;DHT22;30877;43.706;10.780;2024-02-21T14:16:26;19.00;96.70
45115;DHT22;30877;43.706;10.780;2024-02-21T14:18:55;18.90;96.70
45115;DHT22;30877;43.706;10.780;2024-02-21T14:21:24;19.00;96.70
45115;DHT22;30877;43.706;10.780;2024-02-21T14:23:56;18.90;96.70
45115;DHT22;30877;43.706;10.780;2024-02-21T14:26:26;18.90;96.70
45115;DHT22;30877;43.706;10.780;2024-02-21T14:28:54;18.90;96.70
45115;DHT22;30877;43.706;10.780;2024-02-21T14:31:26;18.80;96.70
45115;DHT22;30877;43.706;10.780;2024-02-21T14:33:57;18.90;96.70
45115;DHT22;30877;43.706;10.780;2024-02-21T14:36:26;18.90;96.70
45115;DHT22;30877;43.706;10.780;2024-02-21T14:39:00;18.80;96.70
45115;DHT22;30877;43.706;10.780;2024-02-21T14:41:29;18.80;96.70
45115;DHT22;30877;43.706;10.780;2024-02-21T14:43:58;18.80;96.70
45115;DHT22;30877;43.706;10.780;2024-02-21T14:46:34;18.80;96.70
45115;DHT22;30877;43.706;10.780;2024-02-21T14:49:05;19.00;96.70
45115;DHT22;30877;43.706;10.780;2024-02-21T14:51:35;19.00;96.70
45115;DHT22;30877;43.706;10.780;2024-02-21T14:54:07;19.00;96.70
45115;DHT22;30877;43.706;10.780;2024-02-21T14:56:37;19.00;96.70
45115;DHT22;30877;43.706;10.780;2024-02-21T14:59:09;18.90;96.70
45115;DHT22;30877;43.706;10.780;2024-02-21T15:01:52;18.90;96.70
45115;DHT22;30877;43.706;10.780;2024-02-21T15:04:21;18.80;96.70
45115;DHT22;30877;43.706;10.780;2024-02-21T15:06:49;18.90;96.70
45115;DHT22;30877;43.706;10.780;2024-02-21T15:09:19;18.80;96.70
45115;DHT22;30877;43.706;10.780;2024-02-21T15:11:48;18.70;96.70
45115;DHT22;30877;43.706;10.780;2024-02-21T15:14:16;18.70;96.70
45115;DHT22;30877;43.706;10.780;2024-02-21T15:16:47;18.50;96.70
45115;DHT22;30877;43.706;10.780;2024-02-21T15:19:16;18.30;96.70
45115;DHT22;30877;43.706;10.780;2024-02-21T15:21:45;18.20;96.70
45115;DHT22;30877;43.706;10.780;2024-02-21T15:24:16;18.20;96.70
45115;DHT22;30877;43.706;10.780;2024-02-21T15:26:46;18.20;96.70
45115;DHT22;30877;43.706;10.780;2024-02-21T15:29:18;18.20;96.70
45115;DHT22;30877;43.706;10.780;2024-02-21T15:31:48;18.40;96.70
45115;DHT22;30877;43.706;10.780;2024-02-21T15:34:16;18.90;96.70
45115;DHT22;30877;43.706;10.780;2024-02-21T15:36:46;19.30;96.70
45115;DHT22;30877;43.706;10.780;2024-02-21T15:39:18;19.60;96.70
45115;DHT22;30877;43.706;10.780;2024-02-21T15:41:49;19.70;96.70
45115;DHT22;30877;43.706;10.780;2024-02-21T15:44:19;19.70;96.70
45115;DHT22;30877;43.706;10.780;2024-02-21T15:46:49;19.80;96.70
45115;DHT22;30877;43.706;10.780;2024-02-21T15:49:23;19.70;96.70